Time;durP1;ratioP1;P1;durP2;ratioP2;P2;SDS_P1;SDS_P2;PMS_P1;PMS_P2;Temp;Humidity;BMP_temperature;BMP_pressure;BME280_temperature;BME280_humidity;BME280_pressure;Samples;Min_cycle;Max_cycle;Signal;HPM_P1;HPM_P2
2023/09/01 00:00:06;;;;;;;8.93;2.50;;;;;;;;;;5115672;28;20064;-73
2023/09/01 00:02:32;;;;;;;15.00;2.80;;;;;;;;;;5121256;28;20071;-74
2023/09/01 00:04:58;;;;;;;9.98;2.63;;;;;;;;;;5131505;28;20007;-75
2023/09/01 00:07:24;;;;;;;8.80;2.50;;;;;;;;;;5133501;28;20027;-75
2023/09/01 00:09:51;;;;;;;8.88;2.63;;;;;;;;;;5117874;28;20076;-74
2023/09/01 00:12:17;;;;;;;8.70;2.35;;;;;;;;;;5113941;28;20065;-74
2023/09/01 00:14:43;;;;;;;7.93;2.30;;;;;;;;;;5114898;28;20187;-74
2023/09/01 00:17:09;;;;;;;9.65;3.10;;;;;;;;;;5114787;28;20027;-74
2023/09/01 00:19:35;;;;;;;9.60;2.67;;;;;;;;;;5119513;28;20090;-73
2023/09/01 00:22:02;;;;;;;8.02;2.05;;;;;;;;;;5112448;28;20023;-74
2023/09/01 00:24:30;;;;;;;9.10;2.40;;;;;;;;;;5112650;28;20016;-73
2023/09/01 00:26:56;;;;;;;13.90;2.13;;;;;;;;;;5112942;28;20548;-74
2023/09/01 00:29:22;;;;;;;16.10;2.72;;;;;;;;;;5114028;28;20358;-74
2023/09/01 00:31:49;;;;;;;8.30;2.17;;;;;;;;;;5112431;28;20036;-74
2023/09/01 00:34:15;;;;;;;10.80;2.63;;;;;;;;;;5112471;28;20039;-73
2023/09/01 00:36:41;;;;;;;7.20;2.15;;;;;;;;;;5112658;28;20341;-74
2023/09/01 00:39:08;;;;;;;11.43;2.80;;;;;;;;;;5112281;28;20554;-74
2023/09/01 00:41:34;;;;;;;11.38;2.70;;;;;;;;;;5112283;28;20019;-73
2023/09/01 00:44:00;;;;;;;13.52;2.30;;;;;;;;;;5111418;28;20031;-74
2023/09/01 00:46:27;;;;;;;8.52;2.15;;;;;;;;;;5111511;28;20465;-73
2023/09/01 00:48:54;;;;;;;7.15;2.38;;;;;;;;;;5112278;28;20034;-73
2023/09/01 00:51:20;;;;;;;7.65;2.22;;;;;;;;;;5112072;28;20543;-74
2023/09/01 00:53:46;;;;;;;12.20;2.17;;;;;;;;;;5111388;28;20027;-74
2023/09/01 00:56:13;;;;;;;8.30;2.10;;;;;;;;;;5111727;28;20098;-74
2023/09/01 00:58:39;;;;;;;9.52;2.30;;;;;;;;;;5112783;28;20030;-75
2023/09/01 01:01:05;;;;;;;13.57;2.38;;;;;;;;;;5113364;28;20019;-73
2023/09/01 01:03:33;;;;;;;13.27;2.47;;;;;;;;;;5112667;28;20378;-73
2023/09/01 01:06:17;;;;;;;9.80;2.65;;;;;;;;;;5112734;28;20095;-72
2023/09/01 01:09:08;;;;;;;10.32;2.60;;;;;;;;;;5112781;28;20031;-74
2023/09/01 01:11:37;;;;;;;11.07;2.72;;;;;;;;;;5112654;28;20024;-74
2023/09/01 01:14:07;;;;;;;8.30;2.38;;;;;;;;;;5112298;28;20500;-74
2023/09/01 01:16:34;;;;;;;12.20;2.80;;;;;;;;;;5112564;28;20023;-74
2023/09/01 01:19:04;;;;;;;9.90;2.90;;;;;;;;;;5094404;28;20056;-73
2023/09/01 01:21:32;;;;;;;13.15;2.70;;;;;;;;;;5112475;28;20036;-73
2023/09/01 01:23:58;;;;;;;9.35;2.33;;;;;;;;;;5112117;28;20019;-74
2023/09/01 01:26:26;;;;;;;8.93;3.40;;;;;;;;;;5112397;28;20106;-74
2023/09/01 01:28:52;;;;;;;10.90;2.80;;;;;;;;;;5111259;28;20023;-74
2023/09/01 01:31:18;;;;;;;16.95;2.88;;;;;;;;;;5112422;28;20069;-74
2023/09/01 01:33:47;;;;;;;11.07;2.63;;;;;;;;;;5112045;28;20035;-74
2023/09/01 01:36:18;;;;;;;10.32;2.80;;;;;;;;;;5112760;28;20051;-74
2023/09/01 01:38:47;;;;;;;11.18;2.80;;;;;;;;;;5112371;28;20022;-73
2023/09/01 01:41:19;;;;;;;10.77;3.28;;;;;;;;;;5112233;28;20027;-73
2023/09/01 01:43:47;;;;;;;11.48;2.80;;;;;;;;;;5111887;28;20099;-75
2023/09/01 01:46:14;;;;;;;8.98;2.50;;;;;;;;;;5112236;28;20051;-75
2023/09/01 01:48:40;;;;;;;12.07;2.95;;;;;;;;;;5112406;28;20034;-75
2023/09/01 01:51:06;;;;;;;14.90;4.65;;;;;;;;;;5112306;28;20012;-75
2023/09/01 01:53:33;;;;;;;16.58;3.00;;;;;;;;;;5112086;28;20503;-75
2023/09/01 01:55:59;;;;;;;14.40;3.83;;;;;;;;;;5112095;28;20441;-74
2023/09/01 01:58:26;;;;;;;8.57;3.13;;;;;;;;;;5093840;28;20020;-74
2023/09/01 02:00:53;;;;;;;11.02;3.08;;;;;;;;;;5113351;28;20096;-74
2023/09/01 02:03:19;;;;;;;7.65;2.88;;;;;;;;;;5115972;28;20062;-73
2023/09/01 02:05:45;;;;;;;15.82;3.20;;;;;;;;;;5116152;28;20024;-73
2023/09/01 02:08:11;;;;;;;10.73;2.95;;;;;;;;;;5116211;28;20073;-73
2023/09/01 02:10:36;;;;;;;10.13;2.65;;;;;;;;;;5115053;28;20024;-74
2023/09/01 02:13:04;;;;;;;11.52;2.78;;;;;;;;;;5128017;27;20102;-74
2023/09/01 02:15:30;;;;;;;9.75;3.20;;;;;;;;;;5107542;28;20507;-75
2023/09/01 02:17:57;;;;;;;11.52;2.90;;;;;;;;;;5107190;27;20497;-75
2023/09/01 02:20:24;;;;;;;10.63;3.00;;;;;;;;;;5115729;28;20047;-75
2023/09/01 02:22:50;;;;;;;11.15;3.15;;;;;;;;;;5115154;28;20027;-75
2023/09/01 02:25:16;;;;;;;15.07;3.67;;;;;;;;;;5115652;28;20027;-75
2023/09/01 02:27:43;;;;;;;12.38;3.65;;;;;;;;;;5115403;28;20028;-75
2023/09/01 02:30:09;;;;;;;14.52;3.78;;;;;;;;;;5126338;27;20027;-75
2023/09/01 02:32:36;;;;;;;12.80;4.10;;;;;;;;;;5116618;27;20085;-74
2023/09/01 02:35:05;;;;;;;8.35;3.55;;;;;;;;;;5119722;27;20064;-74
2023/09/01 02:37:31;;;;;;;8.65;3.45;;;;;;;;;;5115102;28;20114;-75
2023/09/01 02:39:57;;;;;;;16.00;3.92;;;;;;;;;;5123787;27;20105;-74
2023/09/01 02:42:23;;;;;;;12.88;3.38;;;;;;;;;;5118562;27;20049;-74
2023/09/01 02:44:49;;;;;;;15.23;3.78;;;;;;;;;;5106726;27;20027;-74
2023/09/01 02:47:16;;;;;;;15.68;4.03;;;;;;;;;;5108895;27;20031;-74
2023/09/01 02:49:42;;;;;;;12.60;3.65;;;;;;;;;;5106791;27;20134;-75
2023/09/01 02:52:08;;;;;;;11.93;3.67;;;;;;;;;;5107621;27;20081;-74
2023/09/01 02:54:35;;;;;;;12.00;3.95;;;;;;;;;;5115704;27;20448;-72
2023/09/01 02:57:01;;;;;;;13.48;3.53;;;;;;;;;;5094091;28;20012;-73
2023/09/01 02:59:27;;;;;;;14.30;3.72;;;;;;;;;;5104836;27;20068;-73
2023/09/01 03:01:53;;;;;;;11.45;3.78;;;;;;;;;;5113730;27;20031;-74
2023/09/01 03:04:19;;;;;;;13.77;4.05;;;;;;;;;;5111349;27;20028;-73
2023/09/01 03:06:45;;;;;;;14.10;4.65;;;;;;;;;;5118171;27;20035;-73
2023/09/01 03:09:11;;;;;;;14.77;3.78;;;;;;;;;;5111491;28;20130;-74
2023/09/01 03:11:37;;;;;;;17.30;4.20;;;;;;;;;;5119678;27;20072;-74
2023/09/01 03:14:04;;;;;;;14.63;4.40;;;;;;;;;;5098741;28;20477;-73
2023/09/01 03:16:30;;;;;;;18.20;4.30;;;;;;;;;;5095266;28;20028;-74
2023/09/01 03:18:59;;;;;;;13.98;4.03;;;;;;;;;;5095320;28;20482;-73
2023/09/01 03:21:30;;;;;;;15.73;4.18;;;;;;;;;;5095543;28;20024;-74
2023/09/01 03:23:57;;;;;;;14.30;4.35;;;;;;;;;;5095591;28;20107;-74
2023/09/01 03:26:23;;;;;;;12.35;3.88;;;;;;;;;;5096292;28;20063;-74
2023/09/01 03:28:49;;;;;;;17.42;4.53;;;;;;;;;;5094953;28;20077;-74
2023/09/01 03:31:15;;;;;;;15.85;4.30;;;;;;;;;;5095007;28;20058;-74
2023/09/01 03:33:42;;;;;;;12.15;4.00;;;;;;;;;;5094234;28;20047;-74
2023/09/01 03:36:08;;;;;;;12.68;4.10;;;;;;;;;;5094244;28;20032;-75
2023/09/01 03:38:35;;;;;;;14.50;3.97;;;;;;;;;;5094215;28;20378;-75
2023/09/01 03:41:04;;;;;;;14.73;4.00;;;;;;;;;;5096446;28;20020;-75
2023/09/01 03:43:31;;;;;;;13.27;4.28;;;;;;;;;;5096332;28;20031;-74
2023/09/01 03:45:57;;;;;;;10.95;4.10;;;;;;;;;;5093893;28;20617;-74
2023/09/01 03:48:24;;;;;;;18.05;4.15;;;;;;;;;;5093950;28;20154;-73
2023/09/01 03:51:08;;;;;;;11.32;3.88;;;;;;;;;;5093904;28;20053;-74
2023/09/01 03:53:35;;;;;;;12.27;4.00;;;;;;;;;;5093642;28;20027;-74
2023/09/01 03:56:19;;;;;;;11.68;3.50;;;;;;;;;;5093792;28;20024;-74
2023/09/01 03:58:45;;;;;;;12.02;3.97;;;;;;;;;;5093526;28;20031;-74
2023/09/01 04:01:11;;;;;;;15.77;4.15;;;;;;;;;;5093581;28;20035;-74
2023/09/01 04:03:38;;;;;;;11.70;4.32;;;;;;;;;;5092990;28;20024;-73
2023/09/01 04:06:05;;;;;;;11.80;3.72;;;;;;;;;;5093552;28;20022;-74
2023/09/01 04:08:32;;;;;;;10.05;3.60;;;;;;;;;;5093292;28;20489;-73
2023/09/01 04:10:58;;;;;;;9.77;3.70;;;;;;;;;;5093492;28;20031;-74
2023/09/01 04:13:24;;;;;;;14.00;4.22;;;;;;;;;;5092970;28;20478;-74
2023/09/01 04:15:50;;;;;;;22.33;4.07;;;;;;;;;;5093588;28;20032;-75
2023/09/01 04:18:17;;;;;;;12.88;3.88;;;;;;;;;;5093580;28;20024;-73
2023/09/01 04:20:50;;;;;;;17.08;4.72;;;;;;;;;;5094426;28;20568;-75
2023/09/01 04:23:16;;;;;;;13.05;3.70;;;;;;;;;;5093041;28;20028;-74
2023/09/01 04:25:44;;;;;;;14.73;3.90;;;;;;;;;;5094006;28;20152;-76
2023/09/01 04:28:10;;;;;;;13.95;3.35;;;;;;;;;;5093061;28;20023;-74
2023/09/01 04:30:36;;;;;;;9.30;3.72;;;;;;;;;;5107588;28;20381;-74
2023/09/01 04:33:06;;;;;;;10.10;3.60;;;;;;;;;;5113932;28;20485;-74
2023/09/01 04:35:32;;;;;;;16.70;3.85;;;;;;;;;;5116120;27;20039;-75
2023/09/01 04:37:58;;;;;;;15.55;3.97;;;;;;;;;;5113936;28;20028;-75
2023/09/01 04:40:24;;;;;;;11.63;3.80;;;;;;;;;;5115115;27;20023;-74
2023/09/01 04:42:50;;;;;;;14.98;3.65;;;;;;;;;;5094456;28;20069;-74
2023/09/01 04:45:17;;;;;;;15.15;3.80;;;;;;;;;;5126682;27;20426;-75
2023/09/01 04:47:43;;;;;;;15.00;3.42;;;;;;;;;;5133773;27;20102;-74
2023/09/01 04:50:09;;;;;;;14.63;3.60;;;;;;;;;;5122642;27;20059;-77
2023/09/01 04:52:36;;;;;;;19.95;4.15;;;;;;;;;;5112160;28;20131;-78
2023/09/01 04:55:03;;;;;;;14.90;4.18;;;;;;;;;;5109902;28;20024;-74
2023/09/01 04:57:29;;;;;;;14.18;4.45;;;;;;;;;;5112009;28;20111;-74
2023/09/01 04:59:55;;;;;;;9.98;3.97;;;;;;;;;;5112263;28;20051;-73
2023/09/01 05:02:21;;;;;;;11.52;3.97;;;;;;;;;;5111994;28;20039;-73
2023/09/01 05:04:47;;;;;;;10.50;3.60;;;;;;;;;;5112203;28;20389;-74
2023/09/01 05:07:13;;;;;;;8.32;2.88;;;;;;;;;;5112436;28;20300;-73
2023/09/01 05:09:39;;;;;;;12.00;3.97;;;;;;;;;;5112570;28;20031;-72
2023/09/01 05:12:05;;;;;;;9.40;3.28;;;;;;;;;;5112212;28;20020;-74
2023/09/01 05:14:31;;;;;;;12.32;3.50;;;;;;;;;;5112157;28;20068;-73
2023/09/01 05:16:57;;;;;;;14.43;3.60;;;;;;;;;;5112459;28;20036;-72
2023/09/01 05:19:23;;;;;;;11.75;3.38;;;;;;;;;;5112105;28;20088;-74
2023/09/01 05:21:49;;;;;;;14.07;3.90;;;;;;;;;;5109926;28;20335;-75
2023/09/01 05:24:15;;;;;;;11.60;3.42;;;;;;;;;;5114039;28;20053;-76
2023/09/01 05:26:41;;;;;;;16.15;3.38;;;;;;;;;;5113095;28;20026;-75
2023/09/01 05:29:07;;;;;;;13.50;3.45;;;;;;;;;;5112163;28;20073;-75
2023/09/01 05:31:33;;;;;;;10.77;4.15;;;;;;;;;;5115123;28;20039;-76
2023/09/01 05:33:59;;;;;;;8.57;3.58;;;;;;;;;;5113743;28;20028;-76
2023/09/01 05:36:26;;;;;;;10.48;3.80;;;;;;;;;;5112687;28;20035;-76
2023/09/01 05:38:52;;;;;;;18.10;3.88;;;;;;;;;;5112343;28;20046;-75
2023/09/01 05:41:18;;;;;;;15.43;4.15;;;;;;;;;;5113407;28;20028;-76
2023/09/01 05:43:44;;;;;;;8.57;3.75;;;;;;;;;;5114186;28;20031;-74
2023/09/01 05:46:09;;;;;;;13.68;5.65;;;;;;;;;;5112486;28;20385;-76
2023/09/01 05:48:36;;;;;;;16.98;4.38;;;;;;;;;;5112295;28;20473;-77
2023/09/01 05:51:03;;;;;;;12.98;3.90;;;;;;;;;;5111257;28;20020;-75
2023/09/01 05:53:29;;;;;;;12.27;3.85;;;;;;;;;;5112481;28;20027;-75
2023/09/01 05:55:55;;;;;;;11.15;3.75;;;;;;;;;;5110406;28;20020;-76
2023/09/01 05:58:21;;;;;;;11.40;3.25;;;;;;;;;;5110587;28;20031;-73
2023/09/01 06:00:47;;;;;;;13.25;3.38;;;;;;;;;;5112783;28;20027;-77
2023/09/01 06:03:13;;;;;;;15.55;3.75;;;;;;;;;;5097003;28;20057;-74
2023/09/01 06:05:39;;;;;;;8.73;3.03;;;;;;;;;;5112180;28;20019;-77
2023/09/01 06:08:06;;;;;;;13.93;3.45;;;;;;;;;;5111049;28;20024;-74
2023/09/01 06:10:32;;;;;;;10.98;3.20;;;;;;;;;;5111737;28;20020;-76
2023/09/01 06:12:58;;;;;;;10.07;3.65;;;;;;;;;;5110972;28;20032;-72
2023/09/01 06:15:24;;;;;;;12.65;3.10;;;;;;;;;;5112121;28;20400;-74
2023/09/01 06:17:49;;;;;;;8.55;3.00;;;;;;;;;;5111633;28;20063;-72
2023/09/01 06:20:16;;;;;;;10.90;3.42;;;;;;;;;;5111602;28;20024;-73
2023/09/01 06:22:41;;;;;;;13.43;2.80;;;;;;;;;;5111746;28;20031;-73
2023/09/01 06:25:08;;;;;;;11.35;3.25;;;;;;;;;;5111691;28;20030;-72
2023/09/01 06:27:37;;;;;;;13.48;3.03;;;;;;;;;;5111490;28;20050;-72
2023/09/01 06:30:03;;;;;;;13.70;2.60;;;;;;;;;;5111479;28;20027;-73
2023/09/01 06:32:29;;;;;;;10.07;2.85;;;;;;;;;;5111423;28;20027;-72
2023/09/01 06:34:55;;;;;;;9.45;2.70;;;;;;;;;;5111647;28;20031;-73
2023/09/01 06:37:21;;;;;;;8.65;3.70;;;;;;;;;;5111275;28;20072;-72
2023/09/01 06:39:47;;;;;;;11.82;3.55;;;;;;;;;;5111642;28;20571;-72
2023/09/01 06:42:13;;;;;;;12.68;4.00;;;;;;;;;;5111478;28;20054;-72
2023/09/01 06:44:39;;;;;;;10.98;2.80;;;;;;;;;;5111910;28;20031;-72
2023/09/01 06:47:05;;;;;;;12.18;2.58;;;;;;;;;;5112859;28;20401;-73
2023/09/01 06:49:31;;;;;;;9.93;2.88;;;;;;;;;;5115621;28;20028;-73
2023/09/01 06:51:58;;;;;;;11.07;2.40;;;;;;;;;;5115125;28;20081;-76
2023/09/01 06:54:25;;;;;;;8.90;2.60;;;;;;;;;;5114701;28;20019;-73
2023/09/01 06:56:50;;;;;;;10.32;2.80;;;;;;;;;;5115130;28;20028;-73
2023/09/01 06:59:16;;;;;;;8.43;2.20;;;;;;;;;;5114993;28;20517;-75
2023/09/01 07:01:43;;;;;;;6.63;2.72;;;;;;;;;;5114679;28;20035;-73
2023/09/01 07:04:09;;;;;;;11.68;2.72;;;;;;;;;;5115708;28;20461;-73
2023/09/01 07:06:34;;;;;;;9.63;2.45;;;;;;;;;;5115838;28;20077;-73
2023/09/01 07:09:00;;;;;;;6.57;2.20;;;;;;;;;;5117586;28;20492;-75
2023/09/01 07:11:26;;;;;;;7.60;2.47;;;;;;;;;;5116372;28;20031;-72
2023/09/01 07:13:52;;;;;;;9.98;2.33;;;;;;;;;;5115102;28;20032;-73
2023/09/01 07:16:18;;;;;;;9.93;2.40;;;;;;;;;;5114695;28;20039;-72
2023/09/01 07:18:46;;;;;;;11.75;2.53;;;;;;;;;;5114886;28;20023;-74
2023/09/01 07:21:12;;;;;;;8.38;3.40;;;;;;;;;;5114505;28;20454;-73
2023/09/01 07:23:38;;;;;;;10.20;2.30;;;;;;;;;;5112957;28;20110;-74
2023/09/01 07:26:04;;;;;;;9.85;2.10;;;;;;;;;;5114532;28;20156;-71
2023/09/01 07:28:30;;;;;;;9.50;2.42;;;;;;;;;;5114306;28;20031;-74
2023/09/01 07:30:56;;;;;;;10.45;1.80;;;;;;;;;;5114275;28;20030;-72
2023/09/01 07:33:22;;;;;;;9.43;1.98;;;;;;;;;;5114483;28;20028;-72
2023/09/01 07:35:48;;;;;;;12.18;1.92;;;;;;;;;;5116209;28;20065;-72
2023/09/01 07:38:14;;;;;;;10.07;1.90;;;;;;;;;;5115410;28;20107;-72
2023/09/01 07:40:41;;;;;;;6.03;2.00;;;;;;;;;;5115616;28;20028;-72
2023/09/01 07:43:07;;;;;;;10.07;1.80;;;;;;;;;;5113934;28;20036;-72
2023/09/01 07:45:33;;;;;;;6.78;2.15;;;;;;;;;;5116237;28;20044;-73
2023/09/01 07:47:59;;;;;;;8.68;1.70;;;;;;;;;;5114575;28;20513;-73
2023/09/01 07:50:29;;;;;;;10.07;2.53;;;;;;;;;;5115190;28;20024;-74
2023/09/01 07:52:55;;;;;;;7.32;1.65;;;;;;;;;;5114503;28;20580;-72
2023/09/01 07:55:21;;;;;;;7.82;1.40;;;;;;;;;;5114435;28;20068;-73
2023/09/01 07:57:47;;;;;;;10.15;1.88;;;;;;;;;;5115552;28;20027;-73
2023/09/01 08:00:13;;;;;;;7.50;2.00;;;;;;;;;;5113754;28;20024;-75
2023/09/01 08:02:40;;;;;;;4.93;1.83;;;;;;;;;;5113900;28;20129;-74
2023/09/01 08:05:06;;;;;;;13.40;2.15;;;;;;;;;;5113710;28;20051;-73
2023/09/01 08:07:32;;;;;;;6.95;1.90;;;;;;;;;;5113511;28;20023;-73
2023/09/01 08:09:58;;;;;;;7.35;1.90;;;;;;;;;;5113647;28;20477;-73
2023/09/01 08:12:26;;;;;;;6.55;1.73;;;;;;;;;;5113686;28;20073;-75
2023/09/01 08:14:52;;;;;;;8.07;1.98;;;;;;;;;;5113301;28;20042;-74
2023/09/01 08:17:18;;;;;;;10.52;2.20;;;;;;;;;;5113350;28;20027;-76
2023/09/01 08:19:50;;;;;;;8.35;2.00;;;;;;;;;;5113745;28;20075;-73
2023/09/01 08:22:17;;;;;;;7.63;1.88;;;;;;;;;;5113122;28;20031;-74
2023/09/01 08:24:44;;;;;;;9.95;1.70;;;;;;;;;;5113507;28;20028;-73
2023/09/01 08:27:10;;;;;;;8.73;1.67;;;;;;;;;;5114016;28;20380;-74
2023/09/01 08:29:37;;;;;;;9.52;1.90;;;;;;;;;;5114184;28;20024;-73
2023/09/01 08:32:03;;;;;;;9.30;2.70;;;;;;;;;;5114052;28;20053;-73
2023/09/01 08:34:29;;;;;;;8.65;2.30;;;;;;;;;;5113654;28;20514;-76
2023/09/01 08:36:55;;;;;;;7.10;2.05;;;;;;;;;;5114351;28;20031;-75
2023/09/01 08:39:21;;;;;;;10.20;2.38;;;;;;;;;;5113221;28;20031;-73
2023/09/01 08:41:48;;;;;;;12.40;1.92;;;;;;;;;;5112907;28;20027;-74
2023/09/01 08:44:14;;;;;;;5.85;1.80;;;;;;;;;;5113005;28;20065;-71
2023/09/01 08:46:41;;;;;;;6.03;1.85;;;;;;;;;;5113100;28;20435;-75
2023/09/01 08:49:08;;;;;;;11.07;2.35;;;;;;;;;;5113126;28;20024;-74
2023/09/01 08:51:40;;;;;;;8.60;2.05;;;;;;;;;;5113219;28;20051;-72
2023/09/01 08:54:07;;;;;;;6.07;1.60;;;;;;;;;;5113359;28;20020;-75
2023/09/01 08:56:34;;;;;;;5.85;1.73;;;;;;;;;;5112809;28;20106;-74
2023/09/01 08:59:00;;;;;;;9.32;1.90;;;;;;;;;;5112968;28;20020;-74
2023/09/01 09:01:27;;;;;;;14.13;1.88;;;;;;;;;;5112605;28;20015;-73
2023/09/01 09:03:53;;;;;;;6.00;1.90;;;;;;;;;;5113198;28;20047;-75
2023/09/01 09:06:32;;;;;;;4.97;1.20;;;;;;;;;;5112753;28;20043;-74
2023/09/01 09:09:12;;;;;;;4.90;1.20;;;;;;;;;;5112972;28;20016;-73
2023/09/01 09:11:38;;;;;;;7.93;1.83;;;;;;;;;;5111630;28;20020;-74
2023/09/01 09:14:04;;;;;;;9.10;2.10;;;;;;;;;;5112191;28;20031;-73
2023/09/01 09:16:30;;;;;;;6.55;1.63;;;;;;;;;;5112581;28;20026;-73
2023/09/01 09:18:56;;;;;;;4.63;1.52;;;;;;;;;;5112625;28;20115;-72
2023/09/01 09:21:30;;;;;;;7.82;1.63;;;;;;;;;;5094520;28;20440;-73
2023/09/01 09:23:57;;;;;;;7.78;2.00;;;;;;;;;;5119883;28;20062;-74
2023/09/01 09:26:27;;;;;;;8.27;1.50;;;;;;;;;;5112775;28;20419;-74
2023/09/01 09:28:53;;;;;;;7.13;1.70;;;;;;;;;;5113253;28;20060;-74
2023/09/01 09:31:29;;;;;;;9.40;1.85;;;;;;;;;;5114087;28;20020;-73
2023/09/01 09:33:55;;;;;;;6.25;1.80;;;;;;;;;;5114395;28;20504;-76
2023/09/01 09:36:36;;;;;;;9.13;1.70;;;;;;;;;;5113066;28;20480;-75
2023/09/01 09:39:03;;;;;;;6.15;1.60;;;;;;;;;;5113257;28;20023;-76
2023/09/01 09:41:49;;;;;;;7.07;1.73;;;;;;;;;;5112925;28;20583;-76
2023/09/01 09:44:35;;;;;;;6.93;1.52;;;;;;;;;;5112151;28;20532;-76
2023/09/01 09:47:03;;;;;;;6.80;1.70;;;;;;;;;;5112099;28;20106;-74
2023/09/01 09:49:32;;;;;;;4.85;1.65;;;;;;;;;;5112004;28;20020;-74
2023/09/01 09:51:59;;;;;;;10.07;2.00;;;;;;;;;;5111864;28;20030;-74
2023/09/01 09:54:28;;;;;;;4.18;1.40;;;;;;;;;;5112212;28;20451;-75
2023/09/01 09:56:54;;;;;;;11.00;2.17;;;;;;;;;;5111933;28;20035;-74
2023/09/01 09:59:24;;;;;;;6.70;1.67;;;;;;;;;;5112282;28;20038;-75
2023/09/01 10:01:51;;;;;;;6.47;1.85;;;;;;;;;;5111718;28;20023;-72
2023/09/01 10:04:17;;;;;;;4.00;1.70;;;;;;;;;;5111959;28;20036;-74
2023/09/01 10:06:44;;;;;;;7.00;1.40;;;;;;;;;;5111935;28;20038;-74
2023/09/01 10:09:11;;;;;;;6.65;1.90;;;;;;;;;;5111714;28;20098;-75
2023/09/01 10:11:37;;;;;;;9.23;1.70;;;;;;;;;;5111698;28;20038;-73
2023/09/01 10:14:03;;;;;;;7.55;1.58;;;;;;;;;;5111663;28;20028;-74
2023/09/01 10:16:30;;;;;;;7.57;1.83;;;;;;;;;;5111859;28;20027;-74
2023/09/01 10:18:56;;;;;;;4.57;1.50;;;;;;;;;;5111980;28;20020;-72
2023/09/01 10:21:22;;;;;;;6.75;1.98;;;;;;;;;;5112078;28;20473;-73
2023/09/01 10:23:48;;;;;;;8.65;1.80;;;;;;;;;;5115573;28;20020;-71
2023/09/01 10:26:24;;;;;;;4.97;1.30;;;;;;;;;;5116017;28;20045;-73
2023/09/01 10:29:04;;;;;;;6.10;1.98;;;;;;;;;;5115915;28;20063;-73
2023/09/01 10:31:30;;;;;;;11.73;4.50;;;;;;;;;;5115591;28;20023;-73
2023/09/01 10:34:12;;;;;;;13.35;3.67;;;;;;;;;;5115727;28;20099;-74
2023/09/01 10:36:39;;;;;;;4.43;1.77;;;;;;;;;;5115877;28;20118;-72
2023/09/01 10:39:18;;;;;;;7.72;2.05;;;;;;;;;;5115737;28;20362;-73
2023/09/01 10:41:54;;;;;;;11.80;3.42;;;;;;;;;;5115222;28;20015;-76
2023/09/01 10:44:21;;;;;;;5.65;1.60;;;;;;;;;;5115418;28;20087;-72
2023/09/01 10:46:49;;;;;;;5.38;1.60;;;;;;;;;;5115412;28;20023;-73
2023/09/01 10:49:14;;;;;;;5.45;1.42;;;;;;;;;;5116030;28;20549;-75
2023/09/01 10:51:41;;;;;;;5.18;1.60;;;;;;;;;;5115533;28;20103;-74
2023/09/01 10:54:16;;;;;;;5.75;1.90;;;;;;;;;;5114564;28;20481;-74
2023/09/01 10:56:54;;;;;;;7.78;1.67;;;;;;;;;;5115246;28;20035;-74
2023/09/01 10:59:28;;;;;;;6.00;1.58;;;;;;;;;;5115155;28;20139;-73
2023/09/01 11:01:54;;;;;;;5.15;1.85;;;;;;;;;;5114896;28;20106;-76
2023/09/01 11:04:24;;;;;;;7.43;2.88;;;;;;;;;;5114957;28;20541;-73
2023/09/01 11:06:59;;;;;;;12.07;3.40;;;;;;;;;;5114946;28;20020;-73
2023/09/01 11:09:35;;;;;;;6.43;1.70;;;;;;;;;;5116431;28;20099;-73
2023/09/01 11:12:02;;;;;;;4.63;1.30;;;;;;;;;;5119425;28;20023;-72
2023/09/01 11:14:28;;;;;;;3.65;1.58;;;;;;;;;;5116576;28;20032;-75
2023/09/01 11:16:54;;;;;;;12.75;1.70;;;;;;;;;;5102075;28;20077;-76
2023/09/01 11:19:20;;;;;;;4.97;1.52;;;;;;;;;;5117834;28;20062;-74
2023/09/01 11:21:50;;;;;;;5.50;1.50;;;;;;;;;;5114607;28;20400;-74
2023/09/01 11:24:20;;;;;;;9.68;1.88;;;;;;;;;;5114023;28;20479;-72
2023/09/01 11:26:46;;;;;;;3.75;1.33;;;;;;;;;;5114727;28;20449;-73
2023/09/01 11:29:13;;;;;;;7.28;1.75;;;;;;;;;;5115359;28;20107;-75
2023/09/01 11:31:40;;;;;;;6.95;1.50;;;;;;;;;;5117224;28;20027;-74
2023/09/01 11:34:06;;;;;;;7.50;2.33;;;;;;;;;;5113541;28;20023;-74
2023/09/01 11:36:32;;;;;;;5.25;2.30;;;;;;;;;;5114664;28;20426;-74
2023/09/01 11:38:58;;;;;;;7.00;1.60;;;;;;;;;;5114204;28;20024;-73
2023/09/01 11:41:26;;;;;;;12.48;2.00;;;;;;;;;;5115712;28;20148;-75
2023/09/01 11:43:54;;;;;;;7.95;1.50;;;;;;;;;;5114155;28;20080;-75
2023/09/01 11:46:31;;;;;;;8.07;1.95;;;;;;;;;;5115199;28;20028;-75
2023/09/01 11:48:57;;;;;;;6.93;1.52;;;;;;;;;;5114292;28;20027;-75
2023/09/01 11:51:30;;;;;;;7.82;1.65;;;;;;;;;;5114401;28;20431;-72
2023/09/01 11:53:56;;;;;;;5.90;1.40;;;;;;;;;;5116936;28;20034;-73
2023/09/01 11:56:23;;;;;;;6.40;1.70;;;;;;;;;;5098940;28;20035;-72
2023/09/01 11:58:50;;;;;;;6.22;1.25;;;;;;;;;;5118939;28;20110;-74
2023/09/01 12:01:17;;;;;;;6.22;1.20;;;;;;;;;;5118105;28;20047;-73
2023/09/01 12:03:52;;;;;;;7.75;1.60;;;;;;;;;;5116257;28;20023;-73
2023/09/01 12:06:22;;;;;;;6.18;1.30;;;;;;;;;;5119342;28;20102;-74
2023/09/01 12:08:49;;;;;;;6.72;1.50;;;;;;;;;;5120488;28;20158;-73
2023/09/01 12:11:15;;;;;;;4.88;1.30;;;;;;;;;;5119194;28;20043;-74
2023/09/01 12:13:45;;;;;;;10.13;1.80;;;;;;;;;;5119071;28;20110;-74
2023/09/01 12:16:24;;;;;;;5.28;1.42;;;;;;;;;;5117732;28;20417;-74
2023/09/01 12:18:51;;;;;;;4.50;1.40;;;;;;;;;;5115285;28;20024;-76
2023/09/01 12:21:17;;;;;;;7.03;1.63;;;;;;;;;;5114769;28;20020;-75
2023/09/01 12:23:43;;;;;;;5.80;1.60;;;;;;;;;;5113917;28;20020;-76
2023/09/01 12:26:10;;;;;;;6.30;1.70;;;;;;;;;;5114778;28;20038;-77
2023/09/01 12:28:37;;;;;;;8.70;2.05;;;;;;;;;;5100440;28;20020;-78
2023/09/01 12:31:05;;;;;;;21.65;7.93;;;;;;;;;;5117456;28;20095;-75
2023/09/01 12:33:31;;;;;;;24.25;8.70;;;;;;;;;;5114424;28;20103;-76
2023/09/01 12:35:57;;;;;;;24.75;8.93;;;;;;;;;;5114402;28;20028;-77
2023/09/01 12:38:23;;;;;;;18.92;7.25;;;;;;;;;;5114680;28;20070;-76
2023/09/01 12:40:49;;;;;;;12.85;4.65;;;;;;;;;;5114024;28;20023;-77
2023/09/01 12:43:15;;;;;;;4.82;1.80;;;;;;;;;;5114845;28;20031;-75
2023/09/01 12:45:41;;;;;;;4.03;1.73;;;;;;;;;;5116968;28;20024;-75
2023/09/01 12:48:07;;;;;;;4.55;1.42;;;;;;;;;;5117417;28;20027;-75
2023/09/01 12:50:34;;;;;;;8.45;2.92;;;;;;;;;;5114398;28;20595;-74
2023/09/01 12:53:00;;;;;;;5.40;1.70;;;;;;;;;;5109910;28;20107;-74
2023/09/01 12:55:26;;;;;;;6.28;2.10;;;;;;;;;;5113039;28;20039;-75
2023/09/01 12:57:52;;;;;;;5.47;2.13;;;;;;;;;;5106503;28;20019;-75
2023/09/01 13:00:19;;;;;;;6.75;2.50;;;;;;;;;;5112878;28;20035;-75
2023/09/01 13:02:46;;;;;;;10.75;2.78;;;;;;;;;;5111841;28;20325;-75
2023/09/01 13:05:12;;;;;;;4.93;1.60;;;;;;;;;;5112177;28;20103;-75
2023/09/01 13:07:39;;;;;;;7.28;2.08;;;;;;;;;;5112009;28;20082;-75
2023/09/01 13:10:05;;;;;;;7.22;1.65;;;;;;;;;;5110514;28;20410;-74
2023/09/01 13:12:31;;;;;;;3.83;1.63;;;;;;;;;;5112013;28;20035;-75
2023/09/01 13:14:57;;;;;;;4.95;1.65;;;;;;;;;;5112042;28;20035;-74
2023/09/01 13:17:26;;;;;;;5.53;1.63;;;;;;;;;;5111834;28;20026;-74
2023/09/01 13:19:53;;;;;;;5.55;2.15;;;;;;;;;;5102531;28;20073;-74
2023/09/01 13:22:19;;;;;;;3.95;1.40;;;;;;;;;;5111541;28;20041;-75
2023/09/01 13:24:45;;;;;;;3.05;1.60;;;;;;;;;;5112454;28;20026;-75
2023/09/01 13:27:11;;;;;;;5.65;1.88;;;;;;;;;;5112173;28;20030;-74
2023/09/01 13:29:37;;;;;;;6.95;1.63;;;;;;;;;;5111063;28;20508;-74
2023/09/01 13:32:03;;;;;;;7.90;1.30;;;;;;;;;;5111400;28;20036;-75
2023/09/01 13:34:29;;;;;;;6.75;1.63;;;;;;;;;;5111715;28;20051;-75
2023/09/01 13:36:55;;;;;;;4.05;1.38;;;;;;;;;;5111101;28;20034;-76
2023/09/01 13:39:21;;;;;;;7.72;1.60;;;;;;;;;;5111708;28;20048;-76
2023/09/01 13:41:48;;;;;;;6.82;1.30;;;;;;;;;;5111892;28;20042;-81
2023/09/01 13:44:14;;;;;;;6.95;1.42;;;;;;;;;;5111699;28;20055;-77
2023/09/01 13:46:40;;;;;;;4.38;1.25;;;;;;;;;;5092448;28;20076;-75
2023/09/01 13:49:08;;;;;;;6.00;1.10;;;;;;;;;;5112422;28;20065;-75
2023/09/01 13:51:35;;;;;;;6.30;3.70;;;;;;;;;;5112083;28;20041;-77
2023/09/01 13:54:01;;;;;;;4.65;1.60;;;;;;;;;;5109944;28;20020;-75
2023/09/01 13:56:27;;;;;;;5.18;1.45;;;;;;;;;;5111313;28;20031;-75
2023/09/01 13:58:53;;;;;;;4.13;1.70;;;;;;;;;;5115723;28;20466;-76
2023/09/01 14:01:19;;;;;;;5.95;2.40;;;;;;;;;;5115442;28;20027;-76
2023/09/01 14:03:45;;;;;;;4.38;1.50;;;;;;;;;;5115605;28;20020;-74
2023/09/01 14:06:11;;;;;;;3.58;1.60;;;;;;;;;;5115303;28;20441;-74
2023/09/01 14:08:37;;;;;;;4.82;1.30;;;;;;;;;;5115644;28;20395;-76
2023/09/01 14:11:03;;;;;;;8.30;3.08;;;;;;;;;;5115490;28;20076;-73
2023/09/01 14:13:29;;;;;;;4.28;1.70;;;;;;;;;;5114516;28;20393;-75
2023/09/01 14:15:57;;;;;;;2.28;1.15;;;;;;;;;;5115062;28;20024;-75
2023/09/01 14:18:24;;;;;;;9.13;2.03;;;;;;;;;;5114769;28;20451;-78
2023/09/01 14:20:52;;;;;;;7.60;1.75;;;;;;;;;;5109599;28;20020;-74
2023/09/01 14:23:25;;;;;;;4.43;1.65;;;;;;;;;;5113474;28;20027;-74
2023/09/01 14:25:52;;;;;;;6.03;1.60;;;;;;;;;;5114265;28;20079;-74
2023/09/01 14:28:18;;;;;;;3.45;1.00;;;;;;;;;;5114856;28;20055;-73
2023/09/01 14:30:44;;;;;;;5.38;1.25;;;;;;;;;;5114449;28;20027;-74
2023/09/01 14:33:10;;;;;;;3.50;1.25;;;;;;;;;;5114128;28;20039;-78
2023/09/01 14:35:37;;;;;;;3.08;1.40;;;;;;;;;;5113899;28;20023;-75
2023/09/01 14:38:04;;;;;;;3.75;1.10;;;;;;;;;;5114403;28;20516;-75